Baytik Shan, China
Current Conditions -  °F | °C
As of 6:00 AM on Sunday 21 Dec 2014 (Local Time) from ZWWW Reporting Station
Smoke Smoke  
Wind Chill:   Ceiling: Unl
Heat Index:   Visibility: 3mi
Dew Point:   Wind: 2mph
Humidity: 79%   Direction: NA
Pressure: 30.39"   Gusts: NA
Location:  45.37°N, 90.53°E
Report Text: ZWWW 202200Z VRB01MPS 5000 FU NSC M14/M17 Q1029 BECMGTL23002000 BR
Loading
Personal Weather Stations






























Interactive Weather Map New forecast layout! Learn more

10-Day Weather Forecast

Advertisements
Track Severe Weather on mobile